Regional Weather

 

KMKL - Jackson, TN, USA
Distance from Parsons: WNW 50mi, 81km
Updated: Fri, 28-Apr-2017 2:53am CDT
Clear
Clear
 Wind from calm
Wind: Calm
Temperature: 54°F , 12°C
Dew Point: 52°F , 11°C
Humidity: 94%
Barometer: 29.85 inHg , 1010.8 hPa
Clouds: Clear
Visibility: 10 miles , 16 km
2017/04/28 07:53 KMKL 280753Z AUTO 00000KT 10SM CLR 12/11 A2985 RMK AO2 SLP106 T01220111
KMEM - Memphis, TN, USA
Distance from Parsons: W 108mi, 173km
Updated: Fri, 28-Apr-2017 2:54am CDT
Clear
Clear
 Wind from ESE
Wind: ESE 7 mph , 11 km/h
Temperature: 57°F , 14°C
Dew Point: 54°F , 12°C
Humidity: 88%
Barometer: 29.79 inHg , 1008.8 hPa
Clouds: Clear
Visibility: 10 miles , 16 km
2017/04/28 07:54 KMEM 280754Z 11006KT 10SM CLR 14/12 A2979 RMK AO2 SLP084 T01440117
 
KBNA - Nashville, TN, USA
Distance from Parsons: NE 97mi, 157km
Updated: Fri, 28-Apr-2017 2:53am CDT
Partly cloudy
Partly cloudy
 Wind from calm
Wind: Calm
Temperature: 54°F , 12°C
Dew Point: 52°F , 11°C
Humidity: 94%
Barometer: 29.90 inHg , 1012.5 hPa
Clouds: Partly cloudy
Visibility: 10 miles , 16 km
Cloud details: Few Clouds 14000 ft
Partly cloudy 25000 ft
2017/04/28 07:53 KBNA 280753Z 00000KT 10SM FEW140 SCT250 12/11 A2990 RMK AO2 SLP120 T01170106
KCKV - Clarksville, TN, USA
Distance from Parsons: NNE 99mi, 159km
Updated: Fri, 28-Apr-2017 2:52am CDT
Clear
Clear
 Wind from SE
Wind: SE 3 mph , 6 km/h
Temperature: 54°F , 12°C
Dew Point: 50°F , 10°C
Humidity: 88%
Barometer: 29.89 inHg , 1012.2 hPa
Clouds: Clear
Visibility: 10 miles , 16 km
2017/04/28 07:52 KCKV 280752Z AUTO 14003KT 10SM CLR 12/10 A2989 RMK AO2 SLP119 T01170100
 
KPAH - Paducah, KY, USA
Distance from Parsons: NNW 128mi, 205km
Updated: Fri, 28-Apr-2017 2:53am CDT
Clear
Clear
 Wind from SE
Wind: SE 3 mph , 6 km/h
Temperature: 54°F , 12°C
Dew Point: 52°F , 11°C
Humidity: 94%
Barometer: 29.86 inHg , 1011.2 hPa
Clouds: Clear
Visibility: 10 miles , 16 km
2017/04/28 07:53 KPAH 280753Z AUTO 13003KT 10SM CLR 12/11 A2986 RMK AO2 SLP111 T01220106
KCHA - Chattanooga, TN, USA
Distance from Parsons: E 165mi, 265km
Updated: Fri, 28-Apr-2017 2:53am CDT
Clear
Clear
 Wind from calm
Wind: Calm
Temperature: 57°F , 14°C
Dew Point: 55°F , 13°C
Humidity: 94%
Barometer: 29.92 inHg , 1013.2 hPa
Clouds: Clear
Visibility: 10 miles , 16 km
2017/04/28 07:53 KCHA 280753Z AUTO 00000KT 10SM CLR 14/13 A2992 RMK AO2 SLP126 T01440128 $
 
KTYS - Knoxville, TN, USA
Distance from Parsons: E 234mi, 377km
Updated: Fri, 28-Apr-2017 2:53am CDT
Clear
Clear
 Wind from calm
Wind: Calm
Temperature: 57°F , 14°C
Dew Point: 55°F , 13°C
Humidity: 94%
Barometer: 29.91 inHg , 1012.9 hPa
Clouds: Clear
Visibility: 10 miles , 16 km
2017/04/28 07:53 KTYS 280753Z 00000KT 10SM CLR 14/13 A2991 RMK AO2 SLP119 T01440128
KLIT - Little Rock, AR, USA
Distance from Parsons: W 240mi, 386km
Updated: Fri, 28-Apr-2017 2:53am CDT
Overcast
Overcast
 Wind from ENE
Wind: ENE 6 mph , 9 km/h
Temperature: 55°F , 13°C
Dew Point: 55°F , 13°C
Humidity: 100%
Barometer: 29.76 inHg , 1007.8 hPa
Clouds: Overcast
Visibility: 10 miles , 16 km
Cloud details: Overcast 11000 ft
2017/04/28 07:53 KLIT 280753Z 06005KT 10SM OVC110 13/13 A2976 RMK AO2 SLP078 T01330133